Time;durP1;ratioP1;P1;durP2;ratioP2;P2;SDS_P1;SDS_P2;PMS_P1;PMS_P2;Temp;Humidity;BMP_temperature;BMP_pressure;BME280_temperature;BME280_humidity;BME280_pressure;Samples;Min_cycle;Max_cycle;Signal;HPM_P1;HPM_P2
2023/12/04 00:01:35;;;;;;;19.38;9.13;;;;;;;;;;5040133;28;20033;-76
2023/12/04 00:04:01;;;;;;;18.50;9.18;;;;;;;;;;5058144;28;20021;-76
2023/12/04 00:06:26;;;;;;;15.80;8.52;;;;;;;;;;5057867;28;20102;-77
2023/12/04 00:08:52;;;;;;;18.45;8.95;;;;;;;;;;5057841;28;20431;-76
2023/12/04 00:11:17;;;;;;;20.23;9.15;;;;;;;;;;5038997;28;20029;-74
2023/12/04 00:13:43;;;;;;;20.15;9.63;;;;;;;;;;5055615;28;20104;-76
2023/12/04 00:16:08;;;;;;;19.85;9.07;;;;;;;;;;5057255;28;20021;-76
2023/12/04 00:18:34;;;;;;;18.63;8.70;;;;;;;;;;5057595;28;20056;-77
2023/12/04 00:20:59;;;;;;;19.17;9.38;;;;;;;;;;5038914;28;20115;-77
2023/12/04 00:23:24;;;;;;;17.75;9.02;;;;;;;;;;5039109;28;20032;-76
2023/12/04 00:25:49;;;;;;;24.13;8.75;;;;;;;;;;5056773;28;20075;-77
2023/12/04 00:28:15;;;;;;;16.08;8.13;;;;;;;;;;5057039;28;20032;-76
2023/12/04 00:30:40;;;;;;;17.77;8.00;;;;;;;;;;5040463;28;20120;-77
2023/12/04 00:33:05;;;;;;;15.40;7.85;;;;;;;;;;5039524;28;20032;-76
2023/12/04 00:35:30;;;;;;;17.70;8.68;;;;;;;;;;5058506;28;20025;-77
2023/12/04 00:37:55;;;;;;;17.05;8.27;;;;;;;;;;5057118;28;20024;-77
2023/12/04 00:40:21;;;;;;;16.00;8.07;;;;;;;;;;5056821;28;20033;-77
2023/12/04 00:42:46;;;;;;;15.10;7.30;;;;;;;;;;5038590;28;20036;-77
2023/12/04 00:45:11;;;;;;;13.68;7.30;;;;;;;;;;5056252;28;20029;-77
2023/12/04 00:47:36;;;;;;;16.40;8.13;;;;;;;;;;5056368;28;20021;-77
2023/12/04 00:50:02;;;;;;;15.80;7.38;;;;;;;;;;5056503;28;20119;-77
2023/12/04 00:52:27;;;;;;;15.55;7.55;;;;;;;;;;5038315;28;20028;-77
2023/12/04 00:54:53;;;;;;;16.88;7.45;;;;;;;;;;5038941;28;20487;-77
2023/12/04 00:57:18;;;;;;;12.50;6.60;;;;;;;;;;5056665;28;20071;-77
2023/12/04 00:59:44;;;;;;;14.93;7.70;;;;;;;;;;5056451;28;20021;-76
2023/12/04 01:02:09;;;;;;;12.73;6.45;;;;;;;;;;5056225;28;20025;-77
2023/12/04 01:04:34;;;;;;;13.65;6.82;;;;;;;;;;5039022;28;20021;-76
2023/12/04 01:07:00;;;;;;;11.55;6.40;;;;;;;;;;5056359;28;20078;-77
2023/12/04 01:09:25;;;;;;;12.02;6.03;;;;;;;;;;5056517;28;20029;-75
2023/12/04 01:11:56;;;;;;;12.95;5.80;;;;;;;;;;5037326;28;20090;-76
2023/12/04 01:14:22;;;;;;;11.50;5.78;;;;;;;;;;5036129;28;20440;-77
2023/12/04 01:16:54;;;;;;;12.30;5.72;;;;;;;;;;5054861;28;20052;-76
2023/12/04 01:19:19;;;;;;;12.43;5.60;;;;;;;;;;5056765;28;20025;-76
2023/12/04 01:21:45;;;;;;;13.18;6.05;;;;;;;;;;5058091;28;20106;-75
2023/12/04 01:24:10;;;;;;;11.35;5.60;;;;;;;;;;5039412;28;20431;-77
2023/12/04 01:26:36;;;;;;;10.85;5.43;;;;;;;;;;5056784;28;20029;-77
2023/12/04 01:29:01;;;;;;;10.20;5.55;;;;;;;;;;5057141;28;20107;-77
2023/12/04 01:31:26;;;;;;;13.15;6.18;;;;;;;;;;5056225;28;20068;-76
2023/12/04 01:33:52;;;;;;;9.63;5.68;;;;;;;;;;5056297;28;20020;-75
2023/12/04 01:36:17;;;;;;;11.93;5.60;;;;;;;;;;5039338;28;20087;-76
2023/12/04 01:38:42;;;;;;;11.70;5.93;;;;;;;;;;5039929;28;20121;-77
2023/12/04 01:41:07;;;;;;;12.05;5.85;;;;;;;;;;5056911;28;20029;-77
2023/12/04 01:43:32;;;;;;;11.68;6.25;;;;;;;;;;5056102;28;20021;-77
2023/12/04 01:46:00;;;;;;;14.45;5.97;;;;;;;;;;5056992;28;20039;-77
2023/12/04 01:48:25;;;;;;;11.50;5.57;;;;;;;;;;5055981;28;20029;-77
2023/12/04 01:50:52;;;;;;;11.43;6.07;;;;;;;;;;5037492;28;20031;-77
2023/12/04 01:53:17;;;;;;;10.88;5.45;;;;;;;;;;5036676;28;20024;-77
2023/12/04 01:55:42;;;;;;;14.70;6.40;;;;;;;;;;5054877;28;20033;-77
2023/12/04 01:58:08;;;;;;;12.85;5.85;;;;;;;;;;5037402;28;20470;-77
2023/12/04 02:00:33;;;;;;;13.73;6.13;;;;;;;;;;5055755;28;20495;-77
2023/12/04 02:02:59;;;;;;;10.23;5.78;;;;;;;;;;5054793;28;20017;-77
2023/12/04 02:05:26;;;;;;;10.15;5.75;;;;;;;;;;5036930;28;20032;-77
2023/12/04 02:07:52;;;;;;;11.75;6.35;;;;;;;;;;5037259;28;20057;-77
2023/12/04 02:10:18;;;;;;;12.15;5.70;;;;;;;;;;5054924;28;20033;-77
2023/12/04 02:12:43;;;;;;;10.88;5.57;;;;;;;;;;5054798;28;20025;-77
2023/12/04 02:15:09;;;;;;;11.10;6.15;;;;;;;;;;5054806;28;20029;-77
2023/12/04 02:17:34;;;;;;;10.70;5.65;;;;;;;;;;5036941;28;20025;-77
2023/12/04 02:19:59;;;;;;;10.68;5.47;;;;;;;;;;5056046;28;20028;-77
2023/12/04 02:22:24;;;;;;;10.45;6.13;;;;;;;;;;5060451;28;20028;-77
2023/12/04 02:24:50;;;;;;;11.93;6.32;;;;;;;;;;5060603;28;20395;-77
2023/12/04 02:27:20;;;;;;;12.98;6.10;;;;;;;;;;5056414;28;20108;-76
2023/12/04 02:29:51;;;;;;;11.88;6.13;;;;;;;;;;5053657;28;20388;-77
2023/12/04 02:32:19;;;;;;;12.27;6.47;;;;;;;;;;5036358;28;20112;-76
2023/12/04 02:34:47;;;;;;;14.20;7.22;;;;;;;;;;5054195;28;20514;-76
2023/12/04 02:37:13;;;;;;;12.25;6.15;;;;;;;;;;5054287;28;20060;-76
2023/12/04 02:39:39;;;;;;;13.05;7.00;;;;;;;;;;5054210;28;20029;-76
2023/12/04 02:42:04;;;;;;;13.25;6.85;;;;;;;;;;5053835;28;20055;-76
2023/12/04 02:44:29;;;;;;;13.38;6.25;;;;;;;;;;5053764;28;20104;-76
2023/12/04 02:46:55;;;;;;;12.85;6.75;;;;;;;;;;5053697;28;20039;-76
2023/12/04 02:49:20;;;;;;;13.95;6.60;;;;;;;;;;5053730;28;20025;-76
2023/12/04 02:51:45;;;;;;;14.50;7.00;;;;;;;;;;5053541;28;20033;-77
2023/12/04 02:54:11;;;;;;;15.10;6.80;;;;;;;;;;5053591;28;20024;-76
2023/12/04 02:56:36;;;;;;;12.13;6.65;;;;;;;;;;5053589;28;20029;-76
2023/12/04 02:59:01;;;;;;;13.05;6.88;;;;;;;;;;5053472;28;20108;-76
2023/12/04 03:01:27;;;;;;;13.80;7.03;;;;;;;;;;5053536;28;20029;-75
2023/12/04 03:03:52;;;;;;;13.38;6.65;;;;;;;;;;5053303;28;20025;-77
2023/12/04 03:06:17;;;;;;;15.93;6.90;;;;;;;;;;5053401;28;20396;-75
2023/12/04 03:08:42;;;;;;;15.30;7.53;;;;;;;;;;5053739;28;20502;-76
2023/12/04 03:11:07;;;;;;;12.75;6.43;;;;;;;;;;5053300;28;20052;-76
2023/12/04 03:13:34;;;;;;;19.80;7.55;;;;;;;;;;5053778;28;20025;-76
2023/12/04 03:15:59;;;;;;;13.50;6.85;;;;;;;;;;5053338;28;20083;-76
2023/12/04 03:18:25;;;;;;;16.15;7.07;;;;;;;;;;5035525;28;20029;-76
2023/12/04 03:20:51;;;;;;;14.60;7.40;;;;;;;;;;5036178;28;20063;-76
2023/12/04 03:23:16;;;;;;;15.13;7.65;;;;;;;;;;5053338;28;20049;-76
2023/12/04 03:25:41;;;;;;;16.42;7.38;;;;;;;;;;5053627;28;20472;-75
2023/12/04 03:28:06;;;;;;;15.80;7.22;;;;;;;;;;5035811;28;20046;-77
2023/12/04 03:30:31;;;;;;;18.70;7.93;;;;;;;;;;5035954;28;20146;-75
2023/12/04 03:32:57;;;;;;;14.55;7.57;;;;;;;;;;5053688;28;20114;-76
2023/12/04 03:35:22;;;;;;;16.15;7.57;;;;;;;;;;5054383;28;20471;-77
2023/12/04 03:37:49;;;;;;;16.48;7.45;;;;;;;;;;5054498;28;20484;-77
2023/12/04 03:40:14;;;;;;;17.75;7.53;;;;;;;;;;5036569;28;20530;-76
2023/12/04 03:42:40;;;;;;;15.32;7.43;;;;;;;;;;5036054;28;20029;-78
2023/12/04 03:45:06;;;;;;;14.23;7.05;;;;;;;;;;5036329;28;20545;-76
2023/12/04 03:47:31;;;;;;;18.98;7.78;;;;;;;;;;5054039;28;20025;-77
2023/12/04 03:49:57;;;;;;;15.75;7.65;;;;;;;;;;5054147;28;20047;-76
2023/12/04 03:52:22;;;;;;;17.73;7.93;;;;;;;;;;5053663;28;20464;-77
2023/12/04 03:54:47;;;;;;;15.38;7.63;;;;;;;;;;5053588;28;20025;-75
2023/12/04 03:57:12;;;;;;;17.20;6.28;;;;;;;;;;5035516;28;20028;-77
2023/12/04 03:59:37;;;;;;;16.70;7.20;;;;;;;;;;5051362;28;20052;-77
2023/12/04 04:02:03;;;;;;;16.17;7.25;;;;;;;;;;5051875;28;20029;-77
2023/12/04 04:04:28;;;;;;;14.82;7.15;;;;;;;;;;5034986;28;20025;-77
2023/12/04 04:06:53;;;;;;;13.65;6.65;;;;;;;;;;5053519;28;20522;-77
2023/12/04 04:09:20;;;;;;;16.65;7.25;;;;;;;;;;5052962;28;20025;-77
2023/12/04 04:11:45;;;;;;;14.77;7.30;;;;;;;;;;5034942;28;20583;-77
2023/12/04 04:14:10;;;;;;;17.10;7.82;;;;;;;;;;5052603;28;20108;-76
2023/12/04 04:16:35;;;;;;;13.60;6.60;;;;;;;;;;5053331;28;20031;-77
2023/12/04 04:19:01;;;;;;;18.50;6.95;;;;;;;;;;5056652;28;20029;-76
2023/12/04 04:21:26;;;;;;;15.70;6.75;;;;;;;;;;5038705;28;20091;-76
2023/12/04 04:23:53;;;;;;;14.00;5.82;;;;;;;;;;5056888;28;20021;-77
2023/12/04 04:26:18;;;;;;;12.82;5.95;;;;;;;;;;5056546;28;20024;-76
2023/12/04 04:28:43;;;;;;;13.30;5.95;;;;;;;;;;5056896;28;20116;-77
2023/12/04 04:31:09;;;;;;;10.05;5.60;;;;;;;;;;5056419;28;20488;-77
2023/12/04 04:33:34;;;;;;;10.40;5.60;;;;;;;;;;5056154;28;20033;-76
2023/12/04 04:35:59;;;;;;;11.05;5.35;;;;;;;;;;5056668;28;20116;-75
2023/12/04 04:38:24;;;;;;;8.43;4.20;;;;;;;;;;5038673;28;20059;-77
2023/12/04 04:40:50;;;;;;;10.35;5.53;;;;;;;;;;5056848;28;20025;-77
2023/12/04 04:43:15;;;;;;;11.82;4.05;;;;;;;;;;5057497;28;20519;-77
2023/12/04 04:45:40;;;;;;;11.43;5.22;;;;;;;;;;5056509;28;20079;-76
2023/12/04 04:48:05;;;;;;;10.43;4.88;;;;;;;;;;5039047;28;20017;-77
2023/12/04 04:50:30;;;;;;;13.73;5.50;;;;;;;;;;5056743;28;20405;-77
2023/12/04 04:52:56;;;;;;;12.77;5.53;;;;;;;;;;5055540;28;20037;-77
2023/12/04 04:55:21;;;;;;;11.52;5.50;;;;;;;;;;5038389;28;20476;-77
2023/12/04 04:57:46;;;;;;;10.45;5.05;;;;;;;;;;5055813;28;20375;-77
2023/12/04 05:00:12;;;;;;;9.82;5.13;;;;;;;;;;5057316;28;20055;-77
2023/12/04 05:02:37;;;;;;;9.63;4.90;;;;;;;;;;5056164;28;20025;-77
2023/12/04 05:05:03;;;;;;;10.45;5.32;;;;;;;;;;5037841;28;20046;-76
2023/12/04 05:07:29;;;;;;;11.23;5.55;;;;;;;;;;5055775;28;20511;-76
2023/12/04 05:09:54;;;;;;;4.80;2.67;;;;;;;;;;5055850;28;20025;-77
2023/12/04 05:12:19;;;;;;;11.05;5.75;;;;;;;;;;5037654;28;20029;-77
2023/12/04 05:14:44;;;;;;;11.80;5.20;;;;;;;;;;5055615;28;20040;-77
2023/12/04 05:17:10;;;;;;;8.98;4.82;;;;;;;;;;5055164;28;20020;-77
2023/12/04 05:19:35;;;;;;;8.40;4.68;;;;;;;;;;5055416;28;20029;-77
2023/12/04 05:22:00;;;;;;;9.68;4.65;;;;;;;;;;5055268;28;20025;-77
2023/12/04 05:24:25;;;;;;;9.88;4.88;;;;;;;;;;5055794;28;20163;-77
2023/12/04 05:26:50;;;;;;;4.25;2.30;;;;;;;;;;5037963;28;20060;-77
2023/12/04 05:29:16;;;;;;;10.77;5.15;;;;;;;;;;5055072;28;20373;-77
2023/12/04 05:31:41;;;;;;;9.68;4.72;;;;;;;;;;5055243;28;20070;-77
2023/12/04 05:34:09;;;;;;;10.60;4.90;;;;;;;;;;5037360;28;20024;-77
2023/12/04 05:36:34;;;;;;;11.80;5.22;;;;;;;;;;5055765;28;20029;-76
2023/12/04 05:38:59;;;;;;;6.35;3.53;;;;;;;;;;5055170;28;20028;-77
2023/12/04 05:41:24;;;;;;;10.30;4.57;;;;;;;;;;5037055;28;20111;-76
2023/12/04 05:43:49;;;;;;;6.80;3.47;;;;;;;;;;5054864;28;20055;-75
2023/12/04 05:46:15;;;;;;;3.90;2.38;;;;;;;;;;5037320;28;20033;-77
2023/12/04 05:48:40;;;;;;;7.63;3.92;;;;;;;;;;5038114;28;20036;-77
2023/12/04 05:51:05;;;;;;;6.65;2.78;;;;;;;;;;5039014;28;20033;-77
2023/12/04 05:53:30;;;;;;;12.88;4.57;;;;;;;;;;5055348;28;20025;-77
2023/12/04 05:55:56;;;;;;;9.60;4.60;;;;;;;;;;5036507;28;20021;-77
2023/12/04 05:58:21;;;;;;;12.13;5.63;;;;;;;;;;5053892;28;20075;-77
2023/12/04 06:00:46;;;;;;;11.25;5.35;;;;;;;;;;5036033;28;20484;-77
2023/12/04 06:03:11;;;;;;;6.57;3.28;;;;;;;;;;5054004;28;20511;-76
2023/12/04 06:05:37;;;;;;;10.77;5.03;;;;;;;;;;5054149;28;20510;-80
2023/12/04 06:08:02;;;;;;;9.77;5.22;;;;;;;;;;5039163;28;20025;-76
2023/12/04 06:10:27;;;;;;;6.38;3.47;;;;;;;;;;5056462;28;20028;-76
2023/12/04 06:12:52;;;;;;;6.05;2.92;;;;;;;;;;5056213;28;20561;-76
2023/12/04 06:15:18;;;;;;;4.85;2.05;;;;;;;;;;5038133;28;20032;-76
2023/12/04 06:17:43;;;;;;;8.82;3.90;;;;;;;;;;5037459;28;20119;-78
2023/12/04 06:20:11;;;;;;;11.70;4.78;;;;;;;;;;5055798;28;20373;-76
2023/12/04 06:22:36;;;;;;;8.68;4.00;;;;;;;;;;5057799;28;20032;-78
2023/12/04 06:25:02;;;;;;;11.45;5.30;;;;;;;;;;5039026;28;20017;-76
2023/12/04 06:27:27;;;;;;;3.55;1.67;;;;;;;;;;5055828;28;20020;-76
2023/12/04 06:29:53;;;;;;;3.13;2.08;;;;;;;;;;5035860;28;20480;-75
2023/12/04 06:32:19;;;;;;;10.70;4.68;;;;;;;;;;5059878;28;20482;-76
2023/12/04 06:34:44;;;;;;;4.03;2.20;;;;;;;;;;5035588;28;20029;-76
2023/12/04 06:37:11;;;;;;;6.82;3.67;;;;;;;;;;5058180;28;20039;-75
2023/12/04 06:39:38;;;;;;;10.90;5.07;;;;;;;;;;5056729;28;20451;-77
2023/12/04 06:42:06;;;;;;;3.80;2.03;;;;;;;;;;5057211;28;20029;-77
2023/12/04 06:44:32;;;;;;;4.88;3.00;;;;;;;;;;5052250;28;20029;-76
2023/12/04 06:47:01;;;;;;;9.50;4.45;;;;;;;;;;5051722;28;20435;-75
2023/12/04 06:49:31;;;;;;;8.25;4.57;;;;;;;;;;5052007;28;20033;-76
2023/12/04 06:51:57;;;;;;;5.18;2.55;;;;;;;;;;5051056;28;20388;-76
2023/12/04 06:54:22;;;;;;;2.30;1.35;;;;;;;;;;5051128;28;20021;-76
2023/12/04 06:56:47;;;;;;;7.43;3.70;;;;;;;;;;5051448;28;20546;-76
2023/12/04 06:59:12;;;;;;;11.02;5.13;;;;;;;;;;5051547;28;20675;-76
2023/12/04 07:01:38;;;;;;;7.28;3.90;;;;;;;;;;5051250;28;20032;-76
2023/12/04 07:04:09;;;;;;;7.80;4.03;;;;;;;;;;5051278;28;20053;-75
2023/12/04 07:06:35;;;;;;;9.25;4.30;;;;;;;;;;5034433;28;20062;-75
2023/12/04 07:09:00;;;;;;;8.15;4.03;;;;;;;;;;5035483;28;20036;-76
2023/12/04 07:11:26;;;;;;;3.10;2.03;;;;;;;;;;5034852;28;20063;-76
2023/12/04 07:13:51;;;;;;;8.05;3.78;;;;;;;;;;5052735;28;20025;-75
2023/12/04 07:16:17;;;;;;;3.47;2.30;;;;;;;;;;5052862;28;20024;-75
2023/12/04 07:18:42;;;;;;;6.28;3.30;;;;;;;;;;5035068;28;20057;-77
2023/12/04 07:21:07;;;;;;;3.55;2.38;;;;;;;;;;5053026;28;20025;-75
2023/12/04 07:23:33;;;;;;;7.78;3.95;;;;;;;;;;5052809;28;20387;-75
2023/12/04 07:25:58;;;;;;;4.50;2.85;;;;;;;;;;5052602;28;20476;-77
2023/12/04 07:28:24;;;;;;;8.10;2.88;;;;;;;;;;5034720;28;20052;-76
2023/12/04 07:30:49;;;;;;;8.75;4.07;;;;;;;;;;5052631;28;20104;-76
2023/12/04 07:33:14;;;;;;;9.70;4.20;;;;;;;;;;5034590;28;20503;-76
2023/12/04 07:35:39;;;;;;;5.93;3.80;;;;;;;;;;5053152;28;20372;-76
2023/12/04 07:38:05;;;;;;;6.82;3.13;;;;;;;;;;5052641;28;20024;-76
2023/12/04 07:40:30;;;;;;;9.65;4.95;;;;;;;;;;5052544;28;20032;-76
2023/12/04 07:42:55;;;;;;;8.73;4.25;;;;;;;;;;5052449;28;20495;-76
2023/12/04 07:45:21;;;;;;;4.93;2.97;;;;;;;;;;5052502;28;20472;-77
2023/12/04 07:47:46;;;;;;;6.80;3.38;;;;;;;;;;5034577;28;20483;-76
2023/12/04 07:50:11;;;;;;;8.55;3.80;;;;;;;;;;5052742;28;20491;-76
2023/12/04 07:52:37;;;;;;;7.90;4.00;;;;;;;;;;5036451;28;20447;-76
2023/12/04 07:55:02;;;;;;;10.63;4.22;;;;;;;;;;5056573;28;20541;-76
2023/12/04 07:57:27;;;;;;;6.50;3.95;;;;;;;;;;5038140;28;20021;-76
2023/12/04 07:59:53;;;;;;;9.13;4.07;;;;;;;;;;5038300;28;20067;-76
2023/12/04 08:02:19;;;;;;;4.75;2.63;;;;;;;;;;5056274;28;20052;-76
2023/12/04 08:04:44;;;;;;;2.38;1.63;;;;;;;;;;5056101;28;20017;-76
2023/12/04 08:07:09;;;;;;;9.20;4.80;;;;;;;;;;5038146;28;20041;-76
2023/12/04 08:09:35;;;;;;;6.75;3.78;;;;;;;;;;5055910;28;20037;-76
2023/12/04 08:12:00;;;;;;;5.97;3.63;;;;;;;;;;5055699;28;20391;-76
2023/12/04 08:14:27;;;;;;;3.63;2.42;;;;;;;;;;5055704;28;20476;-76
2023/12/04 08:16:53;;;;;;;6.30;3.33;;;;;;;;;;5037973;28;20060;-76
2023/12/04 08:19:18;;;;;;;7.72;3.75;;;;;;;;;;5055768;28;20057;-76
2023/12/04 08:21:43;;;;;;;7.53;3.55;;;;;;;;;;5059744;28;20064;-77
2023/12/04 08:24:08;;;;;;;7.38;3.42;;;;;;;;;;5057523;28;20032;-77
2023/12/04 08:26:34;;;;;;;5.60;2.85;;;;;;;;;;5057471;28;20048;-76
2023/12/04 08:28:59;;;;;;;9.02;4.32;;;;;;;;;;5057577;28;20045;-76
2023/12/04 08:31:24;;;;;;;3.25;2.05;;;;;;;;;;5055709;28;20048;-76
2023/12/04 08:33:49;;;;;;;4.40;2.65;;;;;;;;;;5055578;28;20025;-76
2023/12/04 08:36:15;;;;;;;4.50;2.17;;;;;;;;;;5055895;28;20033;-76
2023/12/04 08:38:40;;;;;;;7.13;3.03;;;;;;;;;;5037863;28;20051;-74
2023/12/04 08:41:06;;;;;;;7.43;4.22;;;;;;;;;;5058380;28;20017;-77
2023/12/04 08:43:31;;;;;;;3.03;1.90;;;;;;;;;;5057328;28;20601;-77
2023/12/04 08:45:56;;;;;;;4.68;3.05;;;;;;;;;;5039225;28;20078;-76
2023/12/04 08:48:21;;;;;;;7.25;4.18;;;;;;;;;;5057378;28;20029;-77
2023/12/04 08:50:47;;;;;;;3.42;2.55;;;;;;;;;;5039359;28;20039;-76
2023/12/04 08:53:13;;;;;;;6.15;3.40;;;;;;;;;;5056145;28;20106;-77
2023/12/04 08:55:38;;;;;;;6.43;3.22;;;;;;;;;;5039657;28;20026;-77
2023/12/04 08:58:03;;;;;;;10.35;3.80;;;;;;;;;;5038401;28;20079;-77
2023/12/04 09:00:29;;;;;;;7.43;4.03;;;;;;;;;;5056227;28;20017;-77
2023/12/04 09:02:54;;;;;;;5.32;3.50;;;;;;;;;;5056495;28;20033;-77
2023/12/04 09:05:19;;;;;;;5.82;2.95;;;;;;;;;;5056143;28;20102;-77
2023/12/04 09:07:45;;;;;;;8.35;4.38;;;;;;;;;;5038656;28;20462;-77
2023/12/04 09:10:10;;;;;;;7.68;3.70;;;;;;;;;;5055013;28;20025;-77
2023/12/04 09:12:36;;;;;;;5.88;3.22;;;;;;;;;;5057380;28;20044;-77
2023/12/04 09:15:02;;;;;;;3.53;2.58;;;;;;;;;;5038323;28;20074;-77
2023/12/04 09:17:28;;;;;;;7.80;4.30;;;;;;;;;;5037814;28;20024;-77
2023/12/04 09:19:53;;;;;;;6.88;3.10;;;;;;;;;;5057936;28;20028;-77
2023/12/04 09:22:19;;;;;;;9.40;4.35;;;;;;;;;;5058743;28;20024;-77
2023/12/04 09:24:44;;;;;;;8.35;4.03;;;;;;;;;;5056705;28;20123;-77
2023/12/04 09:27:09;;;;;;;3.95;2.03;;;;;;;;;;5054765;28;20028;-76
2023/12/04 09:29:34;;;;;;;3.50;2.33;;;;;;;;;;5056880;28;20108;-77
2023/12/04 09:32:00;;;;;;;8.90;4.60;;;;;;;;;;5060993;28;20020;-79
2023/12/04 09:34:25;;;;;;;7.53;4.10;;;;;;;;;;5060155;28;20380;-82
2023/12/04 09:36:50;;;;;;;8.05;4.35;;;;;;;;;;5042796;28;20031;-77
2023/12/04 09:39:15;;;;;;;6.95;3.15;;;;;;;;;;5040024;28;20202;-77
2023/12/04 09:41:42;;;;;;;9.82;4.22;;;;;;;;;;5055432;28;20021;-76
2023/12/04 09:44:08;;;;;;;3.17;2.00;;;;;;;;;;5056501;28;20043;-77
2023/12/04 09:46:34;;;;;;;8.60;3.10;;;;;;;;;;5056112;28;20071;-75
2023/12/04 09:49:00;;;;;;;3.20;2.17;;;;;;;;;;5057731;28;20103;-78
2023/12/04 09:51:27;;;;;;;3.90;2.35;;;;;;;;;;5059216;28;20516;-77
2023/12/04 09:53:53;;;;;;;10.80;5.25;;;;;;;;;;5062565;28;20029;-79
2023/12/04 09:56:20;;;;;;;8.25;4.47;;;;;;;;;;5039531;28;20028;-76
2023/12/04 09:58:45;;;;;;;7.90;4.40;;;;;;;;;;5055245;28;20029;-76
2023/12/04 10:01:11;;;;;;;4.97;2.50;;;;;;;;;;5037594;28;20093;-76
2023/12/04 10:03:37;;;;;;;8.50;4.40;;;;;;;;;;5037332;28;20025;-76
2023/12/04 10:06:04;;;;;;;6.25;3.80;;;;;;;;;;5055754;28;20025;-76
2023/12/04 10:08:30;;;;;;;6.35;3.28;;;;;;;;;;5056093;28;20060;-76
2023/12/04 10:10:55;;;;;;;10.50;4.65;;;;;;;;;;5054707;28;20506;-76
2023/12/04 10:13:20;;;;;;;7.55;4.18;;;;;;;;;;5053968;28;20240;-76
2023/12/04 10:15:50;;;;;;;4.72;2.63;;;;;;;;;;5053029;28;20388;-76
2023/12/04 10:18:26;;;;;;;4.47;2.45;;;;;;;;;;5037731;28;20055;-82
2023/12/04 10:20:55;;;;;;;8.00;3.60;;;;;;;;;;5038414;28;20561;-78
2023/12/04 10:23:20;;;;;;;9.02;4.32;;;;;;;;;;5039097;28;20013;-76
2023/12/04 10:25:49;;;;;;;10.32;4.38;;;;;;;;;;5054394;28;20582;-76
2023/12/04 10:28:16;;;;;;;10.00;4.38;;;;;;;;;;5038033;28;20549;-77
2023/12/04 10:30:41;;;;;;;7.28;3.90;;;;;;;;;;5054795;28;20025;-77
2023/12/04 10:33:08;;;;;;;10.48;4.68;;;;;;;;;;5055742;28;20495;-77
2023/12/04 10:35:38;;;;;;;7.60;4.22;;;;;;;;;;5055652;28;20036;-77
2023/12/04 10:38:04;;;;;;;10.77;4.90;;;;;;;;;;5055272;28;20020;-77
2023/12/04 10:40:31;;;;;;;4.43;2.13;;;;;;;;;;5056404;28;20024;-77
2023/12/04 10:43:19;;;;;;;10.82;5.13;;;;;;;;;;5055713;28;20112;-77
2023/12/04 10:45:46;;;;;;;8.65;3.92;;;;;;;;;;5055100;28;20095;-77
2023/12/04 10:48:13;;;;;;;10.25;5.30;;;;;;;;;;5054635;28;20032;-76
2023/12/04 10:50:40;;;;;;;10.15;4.97;;;;;;;;;;5038594;28;20029;-77
2023/12/04 10:53:11;;;;;;;5.78;3.22;;;;;;;;;;5057722;28;20025;-77
2023/12/04 10:55:38;;;;;;;3.90;2.17;;;;;;;;;;5055882;28;20127;-78
2023/12/04 10:58:09;;;;;;;5.88;2.92;;;;;;;;;;5056081;28;20143;-77
2023/12/04 11:00:38;;;;;;;9.60;3.88;;;;;;;;;;5055068;28;20032;-78
2023/12/04 11:03:12;;;;;;;5.97;2.83;;;;;;;;;;5055959;28;20468;-77
2023/12/04 11:05:39;;;;;;;12.77;5.15;;;;;;;;;;5055972;28;20484;-77
2023/12/04 11:08:07;;;;;;;11.30;5.55;;;;;;;;;;5059812;28;20025;-79
2023/12/04 11:10:34;;;;;;;10.63;5.30;;;;;;;;;;5044923;28;20092;-79
2023/12/04 11:13:04;;;;;;;8.52;4.35;;;;;;;;;;5057542;28;20428;-77
2023/12/04 11:15:35;;;;;;;6.03;3.63;;;;;;;;;;5057202;28;20066;-76
2023/12/04 11:18:03;;;;;;;12.80;4.63;;;;;;;;;;5035687;28;20021;-80
2023/12/04 11:20:32;;;;;;;10.60;4.82;;;;;;;;;;5035608;28;20052;-77
2023/12/04 11:22:59;;;;;;;8.30;4.43;;;;;;;;;;5053364;28;20028;-76
2023/12/04 11:25:25;;;;;;;12.27;4.82;;;;;;;;;;5054212;28;20036;-77
2023/12/04 11:27:55;;;;;;;8.13;3.90;;;;;;;;;;5038639;28;20025;-77
2023/12/04 11:30:20;;;;;;;10.23;4.68;;;;;;;;;;5057038;28;20396;-76
2023/12/04 11:32:48;;;;;;;10.13;5.07;;;;;;;;;;5038987;28;20028;-77
2023/12/04 11:35:17;;;;;;;5.50;3.30;;;;;;;;;;5057146;28;20029;-77
2023/12/04 11:37:43;;;;;;;10.55;5.20;;;;;;;;;;5056141;28;20675;-77
2023/12/04 11:40:11;;;;;;;8.18;3.25;;;;;;;;;;5038762;28;20024;-77
2023/12/04 11:42:39;;;;;;;6.45;3.42;;;;;;;;;;5056841;28;20036;-76
2023/12/04 11:45:05;;;;;;;6.97;3.72;;;;;;;;;;5039489;28;20021;-78
2023/12/04 11:47:32;;;;;;;9.38;3.80;;;;;;;;;;5057199;28;20120;-75
2023/12/04 11:49:58;;;;;;;11.45;5.63;;;;;;;;;;5057781;28;20383;-77
2023/12/04 11:52:34;;;;;;;11.32;5.35;;;;;;;;;;5038695;28;20107;-76
2023/12/04 11:55:05;;;;;;;10.35;5.15;;;;;;;;;;5057309;28;20029;-77
2023/12/04 11:57:35;;;;;;;5.05;3.28;;;;;;;;;;5056164;28;20029;-79
2023/12/04 12:00:11;;;;;;;8.23;4.28;;;;;;;;;;5056673;28;20507;-76
2023/12/04 12:02:41;;;;;;;7.10;3.97;;;;;;;;;;5038155;28;20028;-77
2023/12/04 12:05:07;;;;;;;8.25;4.35;;;;;;;;;;5055996;28;20032;-77
2023/12/04 12:07:33;;;;;;;8.63;4.38;;;;;;;;;;5056185;28;20044;-77
2023/12/04 12:09:58;;;;;;;6.03;2.83;;;;;;;;;;5056554;28;20476;-76
2023/12/04 12:12:26;;;;;;;6.35;3.05;;;;;;;;;;5055257;28;20028;-75
2023/12/04 12:14:51;;;;;;;7.78;3.70;;;;;;;;;;5055555;28;20025;-77
2023/12/04 12:17:16;;;;;;;12.15;5.22;;;;;;;;;;5056987;28;20100;-74
2023/12/04 12:19:42;;;;;;;11.05;4.75;;;;;;;;;;5056801;28;20033;-76
2023/12/04 12:22:07;;;;;;;12.93;5.38;;;;;;;;;;5037485;28;20040;-76
2023/12/04 12:24:32;;;;;;;9.60;4.82;;;;;;;;;;5055720;28;20017;-76
2023/12/04 12:26:58;;;;;;;14.63;4.03;;;;;;;;;;5055532;28;20051;-76
2023/12/04 12:29:23;;;;;;;13.38;5.03;;;;;;;;;;5054487;28;20105;-76
2023/12/04 12:31:49;;;;;;;11.35;3.78;;;;;;;;;;5055287;28;20035;-77
2023/12/04 12:34:15;;;;;;;11.05;4.82;;;;;;;;;;5037037;28;20025;-75
2023/12/04 12:36:40;;;;;;;11.02;4.82;;;;;;;;;;5054549;28;20025;-76
2023/12/04 12:39:08;;;;;;;7.80;3.67;;;;;;;;;;5036902;28;20079;-75
2023/12/04 12:41:33;;;;;;;9.43;4.05;;;;;;;;;;5055445;28;20116;-77
2023/12/04 12:44:00;;;;;;;7.10;3.90;;;;;;;;;;5056892;28;20053;-77
2023/12/04 12:46:25;;;;;;;11.52;5.35;;;;;;;;;;5041222;28;20154;-78
2023/12/04 12:48:51;;;;;;;2.20;1.60;;;;;;;;;;5060158;28;20021;-77
2023/12/04 12:51:18;;;;;;;12.90;4.90;;;;;;;;;;5056418;28;20036;-79
2023/12/04 12:53:44;;;;;;;10.75;4.57;;;;;;;;;;5036317;28;20025;-78
2023/12/04 12:56:09;;;;;;;13.15;5.50;;;;;;;;;;5055364;28;20032;-77
2023/12/04 12:58:35;;;;;;;12.23;5.35;;;;;;;;;;5056201;28;20025;-77
2023/12/04 13:01:00;;;;;;;7.75;4.32;;;;;;;;;;5059626;28;20024;-78
2023/12/04 13:03:27;;;;;;;9.60;5.10;;;;;;;;;;5046362;28;20456;-77
2023/12/04 13:05:52;;;;;;;6.50;3.13;;;;;;;;;;5059313;28;20055;-79
2023/12/04 13:08:18;;;;;;;4.90;2.85;;;;;;;;;;5057283;28;20021;-76
2023/12/04 13:10:43;;;;;;;8.05;3.92;;;;;;;;;;5038049;28;20087;-77
2023/12/04 13:13:14;;;;;;;3.70;2.28;;;;;;;;;;5054995;28;20024;-76
2023/12/04 13:15:41;;;;;;;11.15;4.88;;;;;;;;;;5055202;28;20033;-77
2023/12/04 13:18:06;;;;;;;9.70;5.85;;;;;;;;;;5036942;28;20036;-77
2023/12/04 13:20:32;;;;;;;8.45;3.75;;;;;;;;;;5055828;28;20025;-76
2023/12/04 13:22:57;;;;;;;12.15;5.47;;;;;;;;;;5038844;28;20416;-77
2023/12/04 13:25:22;;;;;;;9.90;5.22;;;;;;;;;;5038472;28;20387;-75
2023/12/04 13:27:47;;;;;;;16.85;6.00;;;;;;;;;;5055297;28;20021;-76
2023/12/04 13:30:13;;;;;;;8.70;4.38;;;;;;;;;;5054528;28;20020;-76
2023/12/04 13:32:38;;;;;;;8.07;4.43;;;;;;;;;;5037246;28;20117;-77
2023/12/04 13:35:05;;;;;;;8.93;4.72;;;;;;;;;;5037120;28;20029;-76
2023/12/04 13:37:35;;;;;;;9.00;4.25;;;;;;;;;;5036067;28;20388;-77
2023/12/04 13:40:06;;;;;;;10.63;5.20;;;;;;;;;;5034944;28;20025;-77
2023/12/04 13:45:22;;;;;;;11.73;4.68;;;;;;;;;;5054557;28;20078;-77
2023/12/04 13:47:47;;;;;;;5.15;2.15;;;;;;;;;;5053004;28;20029;-78
2023/12/04 13:50:13;;;;;;;8.95;4.55;;;;;;;;;;5034388;28;20051;-77
2023/12/04 13:52:38;;;;;;;9.65;4.43;;;;;;;;;;5054703;28;20032;-77
2023/12/04 13:55:14;;;;;;;7.40;3.97;;;;;;;;;;5055016;28;20021;-76
2023/12/04 13:57:54;;;;;;;10.95;5.22;;;;;;;;;;5054957;28;20082;-77
2023/12/04 14:00:19;;;;;;;9.55;4.70;;;;;;;;;;5037881;28;20180;-76
2023/12/04 14:02:45;;;;;;;7.15;3.80;;;;;;;;;;5056551;28;20091;-77
2023/12/04 14:05:15;;;;;;;10.13;4.53;;;;;;;;;;5045550;28;20021;-77
2023/12/04 14:07:43;;;;;;;6.35;2.95;;;;;;;;;;5056593;28;20440;-77
2023/12/04 14:10:18;;;;;;;8.25;4.57;;;;;;;;;;5091338;27;20330;-77
2023/12/04 14:12:44;;;;;;;12.25;5.72;;;;;;;;;;5090761;28;20140;-77
2023/12/04 14:15:09;;;;;;;8.30;4.43;;;;;;;;;;5090161;28;20024;-77
2023/12/04 14:17:35;;;;;;;9.77;2.50;;;;;;;;;;5090707;28;20024;-76
2023/12/04 14:20:00;;;;;;;12.45;5.72;;;;;;;;;;5089336;28;20383;-76
2023/12/04 14:22:25;;;;;;;11.50;5.43;;;;;;;;;;5089158;28;20141;-77
2023/12/04 14:24:51;;;;;;;6.32;3.25;;;;;;;;;;5089360;28;20028;-77
2023/12/04 14:27:16;;;;;;;10.77;4.55;;;;;;;;;;5091019;28;20394;-76
2023/12/04 14:29:41;;;;;;;13.50;6.15;;;;;;;;;;5089134;28;20027;-76
2023/12/04 14:32:07;;;;;;;6.13;2.65;;;;;;;;;;5090639;28;20435;-77